createdAt,value
2024-03-05T00:01:27.051Z,33.17
2024-03-05T00:04:02.537Z,30.52
2024-03-05T00:06:30.355Z,30.85
2024-03-05T00:08:57.130Z,27.90
2024-03-05T00:11:24.541Z,26.95
2024-03-05T00:13:51.450Z,30.60
2024-03-05T00:16:21.364Z,25.77
2024-03-05T00:18:48.388Z,31.10
2024-03-05T00:21:18.110Z,27.00
2024-03-05T00:26:21.367Z,26.25
2024-03-05T00:28:48.348Z,28.95
2024-03-05T00:31:15.200Z,25.95
2024-03-05T00:33:45.052Z,22.98
2024-03-05T00:36:11.868Z,25.77
2024-03-05T00:38:38.605Z,25.50
2024-03-05T00:41:05.370Z,25.52
2024-03-05T00:46:07.448Z,24.58
2024-03-05T00:48:35.447Z,22.48
2024-03-05T00:51:14.566Z,21.17
2024-03-05T00:53:41.457Z,23.88
2024-03-05T00:56:09.499Z,23.80
2024-03-05T00:58:36.352Z,19.95
2024-03-05T01:01:12.747Z,22.48
2024-03-05T01:03:39.558Z,20.80
2024-03-05T01:06:09.421Z,16.40
2024-03-05T01:08:36.129Z,21.90
2024-03-05T01:13:38.383Z,17.25
2024-03-05T01:18:46.984Z,21.08
2024-03-05T01:21:13.744Z,21.55
2024-03-05T01:23:41.409Z,18.38
2024-03-05T01:26:18.455Z,20.88
2024-03-05T01:28:45.268Z,17.67
2024-03-05T01:31:12.125Z,18.95
2024-03-05T01:33:38.938Z,21.85
2024-03-05T01:36:06.013Z,18.27
2024-03-05T01:41:14.414Z,17.45
2024-03-05T01:43:41.499Z,17.52
2024-03-05T01:46:08.519Z,18.38
2024-03-05T01:48:35.318Z,18.58
2024-03-05T01:51:04.362Z,23.52
2024-03-05T01:53:37.028Z,16.17
2024-03-05T01:56:04.062Z,15.95
2024-03-05T01:58:31.013Z,17.05
2024-03-05T02:00:57.905Z,19.63
2024-03-05T02:03:27.897Z,19.30
2024-03-05T02:06:00.839Z,15.43
2024-03-05T02:08:28.666Z,21.45
2024-03-05T02:10:56.147Z,16.00
2024-03-05T02:13:23.064Z,19.95
2024-03-05T02:15:51.124Z,15.30
2024-03-05T02:18:17.913Z,18.55
2024-03-05T02:20:44.654Z,17.88
2024-03-05T02:23:11.485Z,19.25
2024-03-05T02:25:48.531Z,17.52
2024-03-05T02:28:15.285Z,16.73
2024-03-05T02:30:42.518Z,17.55
2024-03-05T02:35:45.584Z,14.65
2024-03-05T02:38:12.338Z,16.05
2024-03-05T02:40:42.591Z,17.75
2024-03-05T02:43:09.412Z,17.25
2024-03-05T02:45:46.016Z,13.50
2024-03-05T02:48:12.787Z,18.30
2024-03-05T02:50:39.566Z,17.02
2024-03-05T02:53:07.509Z,17.60
2024-03-05T02:55:34.375Z,17.65
2024-03-05T02:58:07.475Z,15.40
2024-03-05T03:00:35.124Z,15.30
2024-03-05T03:05:43.521Z,15.90
2024-03-05T03:08:10.555Z,15.77
2024-03-05T03:10:39.504Z,16.60
2024-03-05T03:13:06.294Z,14.82
2024-03-05T03:15:33.073Z,11.57
2024-03-05T03:18:11.962Z,15.57
2024-03-05T03:20:38.730Z,15.13
2024-03-05T03:23:05.464Z,14.00
2024-03-05T03:28:07.654Z,13.82
2024-03-05T03:30:40.542Z,19.70
2024-03-05T03:33:10.683Z,13.40
2024-03-05T03:35:38.554Z,13.07
2024-03-05T03:40:44.571Z,12.35
2024-03-05T03:43:11.341Z,14.90
2024-03-05T03:45:41.553Z,11.77
2024-03-05T03:48:08.695Z,11.82
2024-03-05T03:50:35.448Z,10.57
2024-03-05T03:53:02.245Z,11.13
2024-03-05T03:55:29.200Z,9.57
2024-03-05T03:58:02.557Z,11.15
2024-03-05T04:00:29.311Z,12.18
2024-03-05T04:02:56.172Z,21.10
2024-03-05T04:05:23.072Z,11.52
2024-03-05T04:07:51.928Z,10.85
2024-03-05T04:10:33.857Z,10.10
2024-03-05T04:13:02.553Z,11.20
2024-03-05T04:15:32.552Z,9.98
2024-03-05T04:18:02.933Z,12.18
2024-03-05T04:20:30.965Z,9.93
2024-03-05T04:22:57.928Z,17.02
2024-03-05T04:25:25.045Z,11.20
2024-03-05T04:27:51.957Z,9.43
2024-03-05T04:30:18.718Z,15.07
2024-03-05T04:32:58.795Z,10.40
2024-03-05T04:35:35.414Z,13.35
2024-03-05T04:43:12.865Z,9.25
2024-03-05T04:45:39.883Z,10.25
2024-03-05T04:48:16.001Z,10.82
2024-03-05T04:50:54.049Z,8.20
2024-03-05T04:53:29.204Z,9.88
2024-03-05T04:55:56.085Z,10.07
2024-03-05T04:58:22.965Z,8.52
2024-03-05T05:03:25.680Z,11.93
2024-03-05T05:05:52.519Z,9.27
2024-03-05T05:08:19.317Z,6.68
2024-03-05T05:10:48.092Z,7.13
2024-03-05T05:13:15.259Z,10.20
2024-03-05T05:15:42.144Z,9.27
2024-03-05T05:18:11.206Z,11.02
2024-03-05T05:20:38.349Z,8.95
2024-03-05T05:23:08.365Z,10.63
2024-03-05T05:25:35.688Z,8.25
2024-03-05T05:28:08.350Z,12.07
2024-03-05T05:30:37.632Z,13.38
2024-03-05T05:33:23.748Z,11.60
2024-03-05T05:36:00.693Z,9.23
2024-03-05T05:38:27.426Z,7.10
2024-03-05T05:43:29.571Z,7.50
2024-03-05T05:45:57.969Z,11.18
2024-03-05T05:48:29.094Z,7.55
2024-03-05T05:50:57.028Z,13.40
2024-03-05T05:53:23.854Z,6.63
2024-03-05T05:55:58.782Z,11.13
2024-03-05T05:58:25.813Z,6.70
2024-03-05T06:00:52.606Z,11.73
2024-03-05T06:03:21.659Z,7.93
2024-03-05T06:05:48.417Z,7.55
2024-03-05T06:08:15.152Z,10.10
2024-03-05T06:10:50.888Z,7.82
2024-03-05T06:13:17.771Z,6.05
2024-03-05T06:15:44.620Z,7.15
2024-03-05T06:20:50.673Z,7.75
2024-03-05T06:23:17.450Z,10.05
2024-03-05T06:25:45.759Z,6.70
2024-03-05T06:28:13.962Z,9.80
2024-03-05T06:30:40.823Z,4.25
2024-03-05T06:33:10.582Z,7.93
2024-03-05T06:35:37.477Z,5.07
2024-03-05T06:38:04.379Z,9.35
2024-03-05T06:40:34.700Z,6.40
2024-03-05T06:43:01.578Z,6.28
2024-03-05T06:45:29.735Z,3.83
2024-03-05T06:53:06.856Z,7.97
2024-03-05T06:58:16.137Z,8.40
2024-03-05T07:00:44.879Z,6.43
2024-03-05T07:03:11.849Z,3.95
2024-03-05T07:05:38.610Z,6.57
2024-03-05T07:08:05.828Z,6.47
2024-03-05T07:10:39.532Z,6.55
2024-03-05T07:13:06.390Z,7.63
2024-03-05T07:15:33.195Z,6.82
2024-03-05T07:18:00.038Z,5.70
2024-03-05T07:20:26.893Z,5.07
2024-03-05T07:23:00.757Z,8.52
2024-03-05T07:25:27.608Z,8.32
2024-03-05T07:27:54.420Z,4.18
2024-03-05T07:30:26.064Z,4.25
2024-03-05T07:32:52.908Z,7.95
2024-03-05T07:35:22.698Z,11.05
2024-03-05T07:37:49.530Z,5.68
2024-03-05T07:40:21.799Z,7.55
2024-03-05T07:42:53.655Z,7.60
2024-03-05T07:45:21.706Z,4.63
2024-03-05T07:47:57.055Z,6.60
2024-03-05T07:50:24.529Z,6.10
2024-03-05T07:52:52.112Z,9.25
2024-03-05T07:55:25.769Z,4.50
2024-03-05T07:57:56.353Z,3.35
2024-03-05T08:00:23.324Z,6.40
2024-03-05T08:02:53.904Z,3.50
2024-03-05T08:05:27.081Z,6.53
2024-03-05T08:07:55.800Z,6.63
2024-03-05T08:10:26.203Z,3.17
2024-03-05T08:12:59.086Z,8.25
2024-03-05T08:15:26.285Z,8.40
2024-03-05T08:17:54.045Z,12.13
2024-03-05T08:20:23.341Z,6.07
2024-03-05T08:22:50.806Z,3.53
2024-03-05T08:25:18.973Z,5.47
2024-03-05T08:28:01.349Z,6.88
2024-03-05T08:30:29.760Z,14.38
2024-03-05T08:32:57.130Z,9.23
2024-03-05T08:35:25.352Z,6.75
2024-03-05T08:37:56.815Z,6.88
2024-03-05T08:40:34.342Z,7.07
2024-03-05T08:43:01.526Z,9.55
2024-03-05T08:45:29.789Z,6.43
2024-03-05T08:47:56.869Z,7.47
2024-03-05T08:50:24.889Z,6.63
2024-03-05T08:53:02.958Z,4.90
2024-03-05T08:55:29.915Z,9.95
2024-03-05T08:58:03.686Z,8.23
2024-03-05T09:00:37.910Z,5.50
2024-03-05T09:03:09.968Z,8.57
2024-03-05T09:05:37.276Z,4.32
2024-03-05T09:08:04.992Z,6.15
2024-03-05T09:10:31.893Z,4.72
2024-03-05T09:12:59.001Z,7.78
2024-03-05T09:15:25.898Z,5.70
2024-03-05T09:17:52.802Z,7.38
2024-03-05T09:20:19.781Z,5.38
2024-03-05T09:22:47.986Z,5.75
2024-03-05T09:25:15.990Z,7.90
2024-03-05T09:27:50.863Z,6.13
2024-03-05T09:30:19.721Z,8.70
2024-03-05T09:32:49.447Z,4.80
2024-03-05T09:35:16.284Z,2.33
2024-03-05T09:37:50.902Z,9.60
2024-03-05T09:40:17.963Z,6.40
2024-03-05T09:42:46.860Z,7.15
2024-03-05T09:45:19.317Z,5.38
2024-03-05T09:47:51.875Z,8.38
2024-03-05T09:50:19.531Z,5.75
2024-03-05T09:52:54.897Z,13.73
2024-03-05T09:55:30.411Z,5.90
2024-03-05T09:57:58.842Z,5.55
2024-03-05T10:00:26.277Z,4.80
2024-03-05T10:02:56.242Z,9.88
2024-03-05T10:05:25.798Z,7.18
2024-03-05T10:07:52.624Z,6.47
2024-03-05T10:10:20.374Z,4.85
2024-03-05T10:12:50.528Z,6.30
2024-03-05T10:15:22.927Z,9.55
2024-03-05T10:17:52.395Z,4.70
2024-03-05T10:20:32.433Z,5.50
2024-03-05T10:23:04.888Z,9.98
2024-03-05T10:25:33.371Z,6.68
2024-03-05T10:28:00.440Z,3.90
2024-03-05T10:30:30.229Z,2.75
2024-03-05T10:33:06.887Z,4.85
2024-03-05T10:35:34.869Z,8.35
2024-03-05T10:38:14.574Z,4.25
2024-03-05T10:40:42.315Z,7.63
2024-03-05T10:43:10.742Z,3.50
2024-03-05T10:45:48.984Z,5.68
2024-03-05T10:48:16.901Z,4.15
2024-03-05T10:50:46.403Z,7.13
2024-03-05T10:55:53.271Z,12.15
2024-03-05T10:58:20.144Z,5.38
2024-03-05T11:00:47.078Z,9.82
2024-03-05T11:03:14.449Z,7.70
2024-03-05T11:05:45.963Z,4.82
2024-03-05T11:08:13.161Z,8.15
2024-03-05T11:10:47.723Z,8.60
2024-03-05T11:13:15.872Z,5.82
2024-03-05T11:15:55.869Z,4.60
2024-03-05T11:18:36.624Z,6.10
2024-03-05T11:21:19.245Z,6.57
2024-03-05T11:23:52.226Z,5.07
2024-03-05T11:26:20.090Z,5.35
2024-03-05T11:28:48.845Z,6.97
2024-03-05T11:31:28.963Z,3.85
2024-03-05T11:34:14.776Z,5.30
2024-03-05T11:39:17.821Z,4.43
2024-03-05T11:41:49.086Z,6.85
2024-03-05T11:44:35.819Z,8.27
2024-03-05T11:47:03.058Z,7.38
2024-03-05T11:49:30.076Z,6.95
2024-03-05T11:51:57.120Z,6.13
2024-03-05T11:54:32.031Z,6.07
2024-03-05T11:57:00.629Z,3.90
2024-03-05T11:59:39.959Z,7.45
2024-03-05T12:02:11.745Z,10.13
2024-03-05T12:04:42.377Z,4.63
2024-03-05T12:07:14.292Z,5.90
2024-03-05T12:09:41.807Z,5.38
2024-03-05T12:12:10.757Z,3.08
2024-03-05T12:14:56.664Z,4.53
2024-03-05T12:17:26.200Z,10.95
2024-03-05T12:20:08.600Z,3.67
2024-03-05T12:22:38.787Z,3.80
2024-03-05T12:25:12.022Z,3.58
2024-03-05T12:27:38.919Z,5.40
2024-03-05T12:30:07.236Z,1.83
2024-03-05T12:32:38.262Z,6.35
2024-03-05T12:35:06.467Z,3.88
2024-03-05T12:37:33.551Z,7.13
2024-03-05T12:40:00.540Z,3.95
2024-03-05T12:42:27.434Z,3.42
2024-03-05T12:45:09.567Z,3.88
2024-03-05T12:47:37.801Z,3.92
2024-03-05T12:50:13.965Z,4.05
2024-03-05T12:52:40.924Z,3.15
2024-03-05T12:55:08.922Z,6.60
2024-03-05T12:57:37.014Z,8.05
2024-03-05T13:00:07.945Z,6.57
2024-03-05T13:02:45.495Z,3.60
2024-03-05T13:05:20.101Z,4.43
2024-03-05T13:10:22.765Z,6.18
2024-03-05T13:12:59.040Z,6.32
2024-03-05T13:15:28.794Z,2.20
2024-03-05T13:17:55.952Z,3.30
2024-03-05T13:20:29.028Z,3.17
2024-03-05T13:22:55.976Z,5.68
2024-03-05T13:25:27.983Z,7.00
2024-03-05T13:27:55.427Z,3.83
2024-03-05T13:30:22.543Z,5.38
2024-03-05T13:32:51.248Z,3.53
2024-03-05T13:35:18.967Z,5.38
2024-03-05T13:37:48.116Z,3.58
2024-03-05T13:40:16.225Z,5.65
2024-03-05T13:42:43.065Z,6.78
2024-03-05T13:45:16.334Z,1.50
2024-03-05T13:47:44.279Z,5.30
2024-03-05T13:52:50.843Z,4.32
2024-03-05T13:55:21.120Z,4.13
2024-03-05T13:57:49.631Z,4.47
2024-03-05T14:00:18.025Z,4.00
2024-03-05T14:02:45.176Z,6.15
2024-03-05T14:05:13.644Z,4.50
2024-03-05T14:07:40.408Z,5.10
2024-03-05T14:10:15.289Z,6.68
2024-03-05T14:12:46.043Z,5.63
2024-03-05T14:15:16.325Z,3.85
2024-03-05T14:17:43.227Z,4.32
2024-03-05T14:20:12.458Z,5.05
2024-03-05T14:22:41.760Z,6.63
2024-03-05T14:25:11.767Z,5.07
2024-03-05T14:27:38.622Z,2.80
2024-03-05T14:30:09.099Z,4.65
2024-03-05T14:32:36.129Z,2.58
2024-03-05T14:35:06.566Z,3.85
2024-03-05T14:37:33.419Z,4.20
2024-03-05T14:40:01.184Z,5.00
2024-03-05T14:42:35.785Z,7.10
2024-03-05T14:45:06.416Z,4.95
2024-03-05T14:47:33.181Z,4.60
2024-03-05T14:50:00.132Z,7.50
2024-03-05T14:52:30.069Z,3.00
2024-03-05T14:55:00.943Z,5.18
2024-03-05T14:57:29.153Z,6.50
2024-03-05T15:00:02.040Z,4.75
2024-03-05T15:02:28.949Z,6.05
2024-03-05T15:04:55.943Z,2.50
2024-03-05T15:07:22.895Z,4.15
2024-03-05T15:09:49.871Z,4.43
2024-03-05T15:12:16.722Z,2.95
2024-03-05T15:14:53.005Z,4.18
2024-03-05T15:17:22.507Z,6.47
2024-03-05T15:19:49.478Z,5.03
2024-03-05T15:22:17.711Z,4.18
2024-03-05T15:24:44.440Z,3.85
2024-03-05T15:27:13.034Z,3.47
2024-03-05T15:29:48.747Z,6.60
2024-03-05T15:32:19.260Z,2.22
2024-03-05T15:34:46.069Z,6.15
2024-03-05T15:37:14.266Z,3.33
2024-03-05T15:39:41.026Z,6.38
2024-03-05T15:42:07.767Z,3.92
2024-03-05T15:44:34.581Z,3.53
2024-03-05T15:47:01.409Z,8.40
2024-03-05T15:49:28.252Z,8.52
2024-03-05T15:51:55.020Z,4.35
2024-03-05T15:54:21.825Z,4.95
2024-03-05T15:56:50.245Z,5.68
2024-03-05T15:59:17.062Z,6.90
2024-03-05T16:01:43.905Z,4.93
2024-03-05T16:06:46.046Z,4.55
2024-03-05T16:09:21.033Z,4.50
2024-03-05T16:11:48.589Z,24.85
2024-03-05T16:14:23.738Z,4.65
2024-03-05T16:16:50.544Z,5.28
2024-03-05T16:19:17.393Z,6.18
2024-03-05T16:21:44.177Z,3.03
2024-03-05T16:24:12.283Z,2.97
2024-03-05T16:26:39.206Z,4.78
2024-03-05T16:29:06.049Z,3.75
2024-03-05T16:31:32.929Z,11.57
2024-03-05T16:34:03.264Z,6.50
2024-03-05T16:36:30.156Z,5.30
2024-03-05T16:38:57.160Z,5.35
2024-03-05T16:41:27.217Z,7.07
2024-03-05T16:43:54.056Z,4.75
2024-03-05T16:46:20.773Z,6.55
2024-03-05T16:48:47.625Z,5.57
2024-03-05T16:51:17.600Z,3.53
2024-03-05T16:53:44.573Z,4.10
2024-03-05T16:56:13.125Z,4.18
2024-03-05T16:58:46.292Z,3.05
2024-03-05T17:03:48.490Z,7.07
2024-03-05T17:06:16.231Z,8.68
2024-03-05T17:08:49.238Z,7.45
2024-03-05T17:11:16.516Z,7.28
2024-03-05T17:13:43.854Z,5.93
2024-03-05T17:16:10.734Z,9.25
2024-03-05T17:18:37.557Z,12.70
2024-03-05T17:23:40.431Z,4.88
2024-03-05T17:26:14.306Z,6.18
2024-03-05T17:28:41.259Z,9.95
2024-03-05T17:31:12.205Z,5.47
2024-03-05T17:33:39.116Z,7.90
2024-03-05T17:38:41.653Z,3.97
2024-03-05T17:41:15.330Z,4.40
2024-03-05T17:43:42.230Z,2.70
2024-03-05T17:46:13.223Z,3.92
2024-03-05T17:53:56.168Z,2.97
2024-03-05T17:56:31.473Z,2.85
2024-03-05T17:58:58.381Z,2.38
2024-03-05T18:01:25.328Z,5.85
2024-03-05T18:06:27.892Z,3.63
2024-03-05T18:09:00.875Z,3.45
2024-03-05T18:11:29.544Z,4.10
2024-03-05T18:13:56.492Z,2.45
2024-03-05T18:16:23.254Z,1.65
2024-03-05T18:18:50.396Z,2.88
2024-03-05T18:21:17.171Z,1.95
2024-03-05T18:23:47.593Z,1.00
2024-03-05T18:26:14.792Z,4.28
2024-03-05T18:28:41.749Z,7.95
2024-03-05T18:33:44.282Z,1.67
2024-03-05T18:36:11.043Z,10.02
2024-03-05T18:38:37.993Z,3.63
2024-03-05T18:41:05.339Z,4.00
2024-03-05T18:43:32.315Z,6.63
2024-03-05T18:46:00.767Z,2.40
2024-03-05T18:48:27.974Z,2.90
2024-03-05T18:50:54.865Z,4.22
2024-03-05T18:53:32.709Z,9.32
2024-03-05T18:56:09.737Z,3.85
2024-03-05T18:58:36.616Z,4.32
2024-03-05T19:01:04.686Z,1.75
2024-03-05T19:03:31.485Z,4.55
2024-03-05T19:05:59.294Z,3.78
2024-03-05T19:08:26.266Z,1.73
2024-03-05T19:10:53.159Z,8.93
2024-03-05T19:13:22.720Z,3.45
2024-03-05T19:15:49.497Z,5.35
2024-03-05T19:18:16.372Z,2.50
2024-03-05T19:20:46.084Z,8.00
2024-03-05T19:23:13.045Z,5.05
2024-03-05T19:25:46.408Z,3.75
2024-03-05T19:28:15.816Z,2.50
2024-03-05T19:30:42.766Z,5.55
2024-03-05T19:33:11.805Z,2.35
2024-03-05T19:35:41.207Z,2.78
2024-03-05T19:38:11.478Z,4.10
2024-03-05T19:40:38.709Z,3.55
2024-03-05T19:43:08.565Z,7.30
2024-03-05T19:45:35.257Z,3.45
2024-03-05T19:48:02.133Z,3.28
2024-03-05T19:50:30.486Z,4.00
2024-03-05T19:52:57.679Z,5.53
2024-03-05T19:55:32.490Z,7.00
2024-03-05T19:57:59.288Z,1.67
2024-03-05T20:00:26.112Z,5.00
2024-03-05T20:02:53.397Z,2.03
2024-03-05T20:05:20.691Z,2.53
2024-03-05T20:08:08.880Z,2.75
2024-03-05T20:13:20.437Z,1.60
2024-03-05T20:15:56.269Z,8.35
2024-03-05T20:18:27.419Z,4.50
2024-03-05T20:20:58.418Z,4.82
2024-03-05T20:23:42.676Z,1.77
2024-03-05T20:26:26.276Z,7.10
2024-03-05T20:28:53.196Z,5.35
2024-03-05T20:31:20.104Z,1.88
2024-03-05T20:33:48.544Z,5.20
2024-03-05T20:36:16.397Z,4.25
2024-03-05T20:38:56.527Z,4.25
2024-03-05T20:41:33.505Z,3.67
2024-03-05T20:44:00.444Z,3.40
2024-03-05T20:46:27.297Z,5.43
2024-03-05T20:48:54.375Z,4.20
2024-03-05T20:51:24.533Z,4.18
2024-03-05T20:53:51.586Z,4.43
2024-03-05T20:56:31.953Z,2.80
2024-03-05T20:58:58.884Z,6.47
2024-03-05T21:01:25.831Z,3.35
2024-03-05T21:03:52.732Z,4.38
2024-03-05T21:06:23.851Z,3.88
2024-03-05T21:08:51.013Z,4.90
2024-03-05T21:11:20.926Z,3.78
2024-03-05T21:13:49.457Z,5.55
2024-03-05T21:16:16.365Z,6.90
2024-03-05T21:18:44.440Z,7.45
2024-03-05T21:21:11.303Z,3.28
2024-03-05T21:23:38.215Z,6.22
2024-03-05T21:26:27.060Z,5.35
2024-03-05T21:28:59.432Z,3.70
2024-03-05T21:31:30.788Z,4.05
2024-03-05T21:34:02.226Z,5.28
2024-03-05T21:36:35.509Z,5.25
2024-03-05T21:39:02.472Z,4.70
2024-03-05T21:41:30.420Z,5.10
2024-03-05T21:46:39.511Z,5.60
2024-03-05T21:49:06.913Z,5.18
2024-03-05T21:51:39.379Z,5.15
2024-03-05T21:54:06.260Z,7.55
2024-03-05T21:56:33.039Z,7.57
2024-03-05T21:58:59.969Z,4.57
2024-03-05T22:01:26.842Z,5.82
2024-03-05T22:03:53.704Z,8.23
2024-03-05T22:06:35.554Z,6.35
2024-03-05T22:11:39.513Z,8.57
2024-03-05T22:14:07.658Z,6.47
2024-03-05T22:16:34.520Z,5.30
2024-03-05T22:19:10.475Z,8.32
2024-03-05T22:21:45.806Z,5.55
2024-03-05T22:24:12.539Z,5.57
2024-03-05T22:26:41.285Z,6.32
2024-03-05T22:29:08.090Z,3.08
2024-03-05T22:31:35.039Z,5.88
2024-03-05T22:34:01.962Z,6.95
2024-03-05T22:36:29.634Z,14.10
2024-03-05T22:39:00.256Z,6.72
2024-03-05T22:41:29.009Z,7.05
2024-03-05T22:44:03.541Z,14.98
2024-03-05T22:46:30.453Z,8.70
2024-03-05T22:49:04.519Z,4.75
2024-03-05T22:51:45.991Z,6.63
2024-03-05T22:54:19.653Z,5.78
2024-03-05T22:57:00.378Z,4.53
2024-03-05T22:59:27.336Z,4.40
2024-03-05T23:01:54.190Z,6.60
2024-03-05T23:04:20.928Z,6.97
2024-03-05T23:06:48.582Z,5.97
2024-03-05T23:09:22.511Z,2.97
2024-03-05T23:11:54.874Z,6.75
2024-03-05T23:14:25.598Z,4.72
2024-03-05T23:16:52.489Z,7.88
2024-03-05T23:19:19.258Z,6.57
2024-03-05T23:21:54.554Z,6.78
2024-03-05T23:24:21.347Z,5.97
2024-03-05T23:26:48.225Z,8.32
2024-03-05T23:29:16.420Z,7.18
2024-03-05T23:31:49.560Z,6.25
2024-03-05T23:34:24.690Z,3.27
2024-03-05T23:36:51.623Z,5.07
2024-03-05T23:39:18.337Z,11.15
2024-03-05T23:41:47.602Z,5.82
2024-03-05T23:44:17.672Z,6.22
2024-03-05T23:46:45.803Z,5.35
2024-03-05T23:49:12.601Z,7.57
2024-03-05T23:51:47.786Z,11.13
2024-03-05T23:54:17.213Z,7.97
2024-03-05T23:56:45.586Z,6.90
2024-03-05T23:59:12.531Z,4.50
